sensor_id;sensor_type;location;lat;lon;timestamp;temperature;humidity
21805;DHT22;11064;47.102;15.452;2022-12-07T05:02:43;-1.00;99.90
21805;DHT22;11064;47.102;15.452;2022-12-07T05:05:08;-0.90;99.90
21805;DHT22;11064;47.102;15.452;2022-12-07T05:07:34;-0.90;99.90
21805;DHT22;11064;47.102;15.452;2022-12-07T05:10:00;-0.90;99.90
21805;DHT22;11064;47.102;15.452;2022-12-07T05:12:26;-0.90;99.90
21805;DHT22;11064;47.102;15.452;2022-12-07T05:14:51;-1.00;99.90
21805;DHT22;11064;47.102;15.452;2022-12-07T05:17:17;-1.00;99.90
21805;DHT22;11064;47.102;15.452;2022-12-07T05:19:43;-1.00;99.90
21805;DHT22;11064;47.102;15.452;2022-12-07T05:22:08;-1.00;99.90
21805;DHT22;11064;47.102;15.452;2022-12-07T05:24:35;-1.00;99.90
21805;DHT22;11064;47.102;15.452;2022-12-07T05:27:00;-1.10;99.90
21805;DHT22;11064;47.102;15.452;2022-12-07T05:29:26;-1.20;99.90
21805;DHT22;11064;47.102;15.452;2022-12-07T05:31:52;-1.20;99.90
21805;DHT22;11064;47.102;15.452;2022-12-07T05:34:18;-1.30;99.90
21805;DHT22;11064;47.102;15.452;2022-12-07T05:36:43;-1.40;99.90
21805;DHT22;11064;47.102;15.452;2022-12-07T05:39:10;-1.40;99.90
21805;DHT22;11064;47.102;15.452;2022-12-07T05:41:36;-1.40;99.90
21805;DHT22;11064;47.102;15.452;2022-12-07T05:44:20;-1.50;99.90
21805;DHT22;11064;47.102;15.452;2022-12-07T05:46:46;-1.50;99.90
21805;DHT22;11064;47.102;15.452;2022-12-07T05:49:11;-1.50;99.90
21805;DHT22;11064;47.102;15.452;2022-12-07T05:51:37;-1.60;99.90
21805;DHT22;11064;47.102;15.452;2022-12-07T05:54:03;-1.60;99.90
21805;DHT22;11064;47.102;15.452;2022-12-07T05:56:28;-1.60;99.90
21805;DHT22;11064;47.102;15.452;2022-12-07T05:58:54;-1.60;99.90
21805;DHT22;11064;47.102;15.452;2022-12-07T06:01:38;-1.60;99.90
21805;DHT22;11064;47.102;15.452;2022-12-07T06:04:04;-1.50;99.90
21805;DHT22;11064;47.102;15.452;2022-12-07T06:06:31;-1.50;99.90
21805;DHT22;11064;47.102;15.452;2022-12-07T06:08:57;-1.60;99.90
21805;DHT22;11064;47.102;15.452;2022-12-07T06:11:23;-1.50;99.90
21805;DHT22;11064;47.102;15.452;2022-12-07T06:14:07;-1.50;99.90
21805;DHT22;11064;47.102;15.452;2022-12-07T06:16:33;-1.60;99.90
21805;DHT22;11064;47.102;15.452;2022-12-07T06:18:58;-1.60;99.90
21805;DHT22;11064;47.102;15.452;2022-12-07T06:21:24;-1.60;99.90
21805;DHT22;11064;47.102;15.452;2022-12-07T06:23:52;-1.70;99.90
21805;DHT22;11064;47.102;15.452;2022-12-07T06:26:18;-1.80;99.90
21805;DHT22;11064;47.102;15.452;2022-12-07T06:28:44;-1.90;99.90
21805;DHT22;11064;47.102;15.452;2022-12-07T06:31:09;-2.00;99.90
21805;DHT22;11064;47.102;15.452;2022-12-07T06:33:35;-2.10;99.90
21805;DHT22;11064;47.102;15.452;2022-12-07T06:36:01;-2.10;99.90
21805;DHT22;11064;47.102;15.452;2022-12-07T06:38:27;-2.10;99.90
21805;DHT22;11064;47.102;15.452;2022-12-07T06:40:52;-2.00;99.90
21805;DHT22;11064;47.102;15.452;2022-12-07T06:43:18;-1.80;99.90
21805;DHT22;11064;47.102;15.452;2022-12-07T06:45:44;-1.70;99.90
21805;DHT22;11064;47.102;15.452;2022-12-07T06:48:10;-1.60;99.90
21805;DHT22;11064;47.102;15.452;2022-12-07T06:50:35;-1.60;99.90
21805;DHT22;11064;47.102;15.452;2022-12-07T06:53:01;-1.50;99.90
21805;DHT22;11064;47.102;15.452;2022-12-07T06:55:27;-1.30;99.90
21805;DHT22;11064;47.102;15.452;2022-12-07T06:57:53;-1.10;99.90
21805;DHT22;11064;47.102;15.452;2022-12-07T07:00:19;-1.10;99.90
21805;DHT22;11064;47.102;15.452;2022-12-07T07:02:45;-1.00;99.90
21805;DHT22;11064;47.102;15.452;2022-12-07T07:05:10;-0.90;99.90
21805;DHT22;11064;47.102;15.452;2022-12-07T07:07:36;-0.90;99.90
21805;DHT22;11064;47.102;15.452;2022-12-07T07:10:02;-0.80;99.90
21805;DHT22;11064;47.102;15.452;2022-12-07T07:12:28;-0.70;99.90
21805;DHT22;11064;47.102;15.452;2022-12-07T07:14:54;-0.70;99.90
21805;DHT22;11064;47.102;15.452;2022-12-07T07:17:20;-0.60;99.90
21805;DHT22;11064;47.102;15.452;2022-12-07T07:19:46;-0.60;99.90
21805;DHT22;11064;47.102;15.452;2022-12-07T07:22:11;-0.60;99.90
21805;DHT22;11064;47.102;15.452;2022-12-07T07:24:37;-0.50;99.90
21805;DHT22;11064;47.102;15.452;2022-12-07T07:27:03;-0.50;99.90
21805;DHT22;11064;47.102;15.452;2022-12-07T07:29:28;-0.40;99.90
21805;DHT22;11064;47.102;15.452;2022-12-07T07:31:54;-0.30;99.90
21805;DHT22;11064;47.102;15.452;2022-12-07T07:34:20;0.00;99.90
21805;DHT22;11064;47.102;15.452;2022-12-07T07:36:45;0.10;99.90
21805;DHT22;11064;47.102;15.452;2022-12-07T07:39:11;0.30;99.90
21805;DHT22;11064;47.102;15.452;2022-12-07T07:41:38;0.30;99.90
21805;DHT22;11064;47.102;15.452;2022-12-07T07:44:04;0.40;99.90
21805;DHT22;11064;47.102;15.452;2022-12-07T07:46:29;0.40;99.90
21805;DHT22;11064;47.102;15.452;2022-12-07T07:48:55;0.40;99.90
21805;DHT22;11064;47.102;15.452;2022-12-07T07:51:21;0.50;99.90
21805;DHT22;11064;47.102;15.452;2022-12-07T07:53:47;0.50;99.90
21805;DHT22;11064;47.102;15.452;2022-12-07T07:56:12;0.60;99.90
21805;DHT22;11064;47.102;15.452;2022-12-07T07:58:38;0.60;99.90
21805;DHT22;11064;47.102;15.452;2022-12-07T08:01:08;0.70;99.90
21805;DHT22;11064;47.102;15.452;2022-12-07T08:03:34;0.70;99.90
21805;DHT22;11064;47.102;15.452;2022-12-07T08:05:59;0.70;99.90
21805;DHT22;11064;47.102;15.452;2022-12-07T08:08:26;0.70;99.90
21805;DHT22;11064;47.102;15.452;2022-12-07T08:10:52;0.80;99.90
21805;DHT22;11064;47.102;15.452;2022-12-07T08:13:18;0.90;99.90
21805;DHT22;11064;47.102;15.452;2022-12-07T08:15:46;0.90;99.90
21805;DHT22;11064;47.102;15.452;2022-12-07T08:18:12;1.10;99.90
21805;DHT22;11064;47.102;15.452;2022-12-07T08:20:39;1.20;99.90
21805;DHT22;11064;47.102;15.452;2022-12-07T08:23:06;1.40;99.90
21805;DHT22;11064;47.102;15.452;2022-12-07T08:25:32;1.50;99.90
21805;DHT22;11064;47.102;15.452;2022-12-07T08:27:58;1.60;99.90
21805;DHT22;11064;47.102;15.452;2022-12-07T08:30:24;1.80;99.90
21805;DHT22;11064;47.102;15.452;2022-12-07T08:32:49;1.90;99.90
21805;DHT22;11064;47.102;15.452;2022-12-07T08:35:16;2.00;99.90
21805;DHT22;11064;47.102;15.452;2022-12-07T08:37:42;2.20;99.90
21805;DHT22;11064;47.102;15.452;2022-12-07T08:40:10;2.30;99.90
21805;DHT22;11064;47.102;15.452;2022-12-07T08:42:36;2.40;99.90
21805;DHT22;11064;47.102;15.452;2022-12-07T08:45:13;2.40;99.90
21805;DHT22;11064;47.102;15.452;2022-12-07T08:47:55;2.40;99.90
21805;DHT22;11064;47.102;15.452;2022-12-07T08:50:23;2.40;99.90
21805;DHT22;11064;47.102;15.452;2022-12-07T08:52:55;2.40;99.90
21805;DHT22;11064;47.102;15.452;2022-12-07T08:55:22;2.40;99.90
21805;DHT22;11064;47.102;15.452;2022-12-07T08:57:49;2.40;99.90
21805;DHT22;11064;47.102;15.452;2022-12-07T09:00:16;2.40;99.90
21805;DHT22;11064;47.102;15.452;2022-12-07T09:02:43;2.20;99.90
21805;DHT22;11064;47.102;15.452;2022-12-07T09:05:10;2.00;99.90
21805;DHT22;11064;47.102;15.452;2022-12-07T09:07:37;2.10;99.90
21805;DHT22;11064;47.102;15.452;2022-12-07T09:10:04;2.20;99.90
21805;DHT22;11064;47.102;15.452;2022-12-07T09:12:30;2.40;99.90
21805;DHT22;11064;47.102;15.452;2022-12-07T09:14:56;2.50;99.90
21805;DHT22;11064;47.102;15.452;2022-12-07T09:17:22;2.60;99.90
21805;DHT22;11064;47.102;15.452;2022-12-07T09:19:47;2.70;99.90
21805;DHT22;11064;47.102;15.452;2022-12-07T09:22:13;2.80;99.90
21805;DHT22;11064;47.102;15.452;2022-12-07T09:24:39;2.70;99.90
21805;DHT22;11064;47.102;15.452;2022-12-07T09:27:05;2.90;99.90
21805;DHT22;11064;47.102;15.452;2022-12-07T09:29:30;3.00;99.90
21805;DHT22;11064;47.102;15.452;2022-12-07T09:31:56;3.20;99.90
21805;DHT22;11064;47.102;15.452;2022-12-07T09:34:22;3.40;99.90
21805;DHT22;11064;47.102;15.452;2022-12-07T09:36:48;3.60;99.90
21805;DHT22;11064;47.102;15.452;2022-12-07T09:39:13;3.70;99.90
21805;DHT22;11064;47.102;15.452;2022-12-07T09:41:41;3.90;99.90
21805;DHT22;11064;47.102;15.452;2022-12-07T09:44:12;4.00;99.90
21805;DHT22;11064;47.102;15.452;2022-12-07T09:46:41;4.10;99.90
21805;DHT22;11064;47.102;15.452;2022-12-07T09:49:18;4.10;99.90
21805;DHT22;11064;47.102;15.452;2022-12-07T09:51:45;4.00;99.90
21805;DHT22;11064;47.102;15.452;2022-12-07T09:54:16;4.00;99.90
21805;DHT22;11064;47.102;15.452;2022-12-07T09:56:43;4.10;99.90
21805;DHT22;11064;47.102;15.452;2022-12-07T09:59:16;4.10;99.90
21805;DHT22;11064;47.102;15.452;2022-12-07T10:01:45;4.10;99.90
21805;DHT22;11064;47.102;15.452;2022-12-07T10:04:32;4.10;99.90
21805;DHT22;11064;47.102;15.452;2022-12-07T10:06:58;4.00;99.90
21805;DHT22;11064;47.102;15.452;2022-12-07T10:09:24;3.80;99.90
21805;DHT22;11064;47.102;15.452;2022-12-07T10:12:03;3.80;99.90
21805;DHT22;11064;47.102;15.452;2022-12-07T10:14:31;3.90;99.90
21805;DHT22;11064;47.102;15.452;2022-12-07T10:16:58;4.00;99.90
21805;DHT22;11064;47.102;15.452;2022-12-07T10:19:25;4.00;99.90
21805;DHT22;11064;47.102;15.452;2022-12-07T10:22:04;4.10;99.90
21805;DHT22;11064;47.102;15.452;2022-12-07T10:24:30;4.10;99.90
21805;DHT22;11064;47.102;15.452;2022-12-07T10:26:56;4.00;99.90
21805;DHT22;11064;47.102;15.452;2022-12-07T10:32:31;3.90;99.90
21805;DHT22;11064;47.102;15.452;2022-12-07T10:35:21;3.90;99.90
21805;DHT22;11064;47.102;15.452;2022-12-07T10:37:48;3.80;99.90
21805;DHT22;11064;47.102;15.452;2022-12-07T10:43:17;4.00;99.90
21805;DHT22;11064;47.102;15.452;2022-12-07T11:00:25;3.90;99.90
21805;DHT22;11064;47.102;15.452;2022-12-07T11:03:39;3.80;99.90
21805;DHT22;11064;47.102;15.452;2022-12-07T11:11:09;3.60;99.90
21805;DHT22;11064;47.102;15.452;2022-12-07T11:13:46;3.50;99.90
21805;DHT22;11064;47.102;15.452;2022-12-07T11:24:17;3.60;99.90
21805;DHT22;11064;47.102;15.452;2022-12-07T11:37:37;3.80;99.90
21805;DHT22;11064;47.102;15.452;2022-12-07T11:40:20;3.80;99.90
21805;DHT22;11064;47.102;15.452;2022-12-07T11:43:37;3.90;99.90
21805;DHT22;11064;47.102;15.452;2022-12-07T11:45:42;3.90;99.90
21805;DHT22;11064;47.102;15.452;2022-12-07T11:48:18;3.90;99.90
21805;DHT22;11064;47.102;15.452;2022-12-07T11:50:52;3.90;99.90
21805;DHT22;11064;47.102;15.452;2022-12-07T11:53:25;3.80;99.90
21805;DHT22;11064;47.102;15.452;2022-12-07T11:59:01;3.50;99.90
21805;DHT22;11064;47.102;15.452;2022-12-07T12:06:37;3.60;99.90
21805;DHT22;11064;47.102;15.452;2022-12-07T12:09:24;3.70;99.90
21805;DHT22;11064;47.102;15.452;2022-12-07T12:12:07;3.80;99.90
21805;DHT22;11064;47.102;15.452;2022-12-07T12:14:57;4.00;99.90
21805;DHT22;11064;47.102;15.452;2022-12-07T12:23:11;4.70;99.90
21805;DHT22;11064;47.102;15.452;2022-12-07T12:26:01;4.80;99.90
21805;DHT22;11064;47.102;15.452;2022-12-07T12:31:16;4.70;99.90
21805;DHT22;11064;47.102;15.452;2022-12-07T12:33:58;4.50;99.90
21805;DHT22;11064;47.102;15.452;2022-12-07T12:47:03;4.10;99.90
21805;DHT22;11064;47.102;15.452;2022-12-07T12:49:41;4.10;99.90
21805;DHT22;11064;47.102;15.452;2022-12-07T12:54:37;4.20;99.90
21805;DHT22;11064;47.102;15.452;2022-12-07T13:02:39;4.00;99.90
21805;DHT22;11064;47.102;15.452;2022-12-07T13:10:37;3.80;99.90
21805;DHT22;11064;47.102;15.452;2022-12-07T13:15:40;3.70;99.90
21805;DHT22;11064;47.102;15.452;2022-12-07T13:33:36;3.30;99.90
21805;DHT22;11064;47.102;15.452;2022-12-07T13:36:02;3.30;99.90
21805;DHT22;11064;47.102;15.452;2022-12-07T13:38:35;3.30;99.90
21805;DHT22;11064;47.102;15.452;2022-12-07T13:41:16;3.20;99.90
21805;DHT22;11064;47.102;15.452;2022-12-07T13:44:00;3.20;99.90
21805;DHT22;11064;47.102;15.452;2022-12-07T13:46:52;3.10;99.90
21805;DHT22;11064;47.102;15.452;2022-12-07T13:51:51;2.90;99.90
21805;DHT22;11064;47.102;15.452;2022-12-07T13:54:19;2.90;99.90
21805;DHT22;11064;47.102;15.452;2022-12-07T13:56:51;2.80;99.90
21805;DHT22;11064;47.102;15.452;2022-12-07T13:59:22;2.70;99.90
21805;DHT22;11064;47.102;15.452;2022-12-07T14:01:49;2.60;99.90
21805;DHT22;11064;47.102;15.452;2022-12-07T14:06:53;2.50;99.90
21805;DHT22;11064;47.102;15.452;2022-12-07T14:09:26;2.40;99.90
21805;DHT22;11064;47.102;15.452;2022-12-07T14:11:54;2.30;99.90
21805;DHT22;11064;47.102;15.452;2022-12-07T14:14:29;2.20;99.90
21805;DHT22;11064;47.102;15.452;2022-12-07T14:17:18;2.10;99.90
21805;DHT22;11064;47.102;15.452;2022-12-07T14:19:55;2.10;99.90
21805;DHT22;11064;47.102;15.452;2022-12-07T14:24:57;1.90;99.90
21805;DHT22;11064;47.102;15.452;2022-12-07T14:27:24;1.80;99.90
21805;DHT22;11064;47.102;15.452;2022-12-07T14:29:56;1.80;99.90
21805;DHT22;11064;47.102;15.452;2022-12-07T14:32:25;1.80;99.90
21805;DHT22;11064;47.102;15.452;2022-12-07T14:35:11;1.70;99.90
21805;DHT22;11064;47.102;15.452;2022-12-07T14:37:39;1.60;99.90
21805;DHT22;11064;47.102;15.452;2022-12-07T14:40:05;1.60;99.90
21805;DHT22;11064;47.102;15.452;2022-12-07T14:42:33;1.60;99.90
21805;DHT22;11064;47.102;15.452;2022-12-07T14:45:00;1.60;99.90
21805;DHT22;11064;47.102;15.452;2022-12-07T14:47:26;1.60;99.90
21805;DHT22;11064;47.102;15.452;2022-12-07T14:49:52;1.50;99.90
21805;DHT22;11064;47.102;15.452;2022-12-07T14:52:26;1.40;99.90
21805;DHT22;11064;47.102;15.452;2022-12-07T14:54:53;1.40;99.90
21805;DHT22;11064;47.102;15.452;2022-12-07T14:57:18;1.50;99.90
21805;DHT22;11064;47.102;15.452;2022-12-07T14:59:44;1.40;99.90
21805;DHT22;11064;47.102;15.452;2022-12-07T15:02:14;1.40;99.90
21805;DHT22;11064;47.102;15.452;2022-12-07T15:04:40;1.30;99.90
21805;DHT22;11064;47.102;15.452;2022-12-07T15:07:15;1.40;99.90
21805;DHT22;11064;47.102;15.452;2022-12-07T15:09:42;1.40;99.90
21805;DHT22;11064;47.102;15.452;2022-12-07T15:12:07;1.40;99.90
21805;DHT22;11064;47.102;15.452;2022-12-07T15:14:33;1.40;99.90
21805;DHT22;11064;47.102;15.452;2022-12-07T15:16:59;1.40;99.90
21805;DHT22;11064;47.102;15.452;2022-12-07T15:19:25;1.50;99.90
21805;DHT22;11064;47.102;15.452;2022-12-07T15:21:52;1.50;99.90
21805;DHT22;11064;47.102;15.452;2022-12-07T15:24:18;1.70;99.90
21805;DHT22;11064;47.102;15.452;2022-12-07T15:26:45;1.70;99.90
21805;DHT22;11064;47.102;15.452;2022-12-07T15:29:11;1.80;99.90
21805;DHT22;11064;47.102;15.452;2022-12-07T15:31:37;1.70;99.90
21805;DHT22;11064;47.102;15.452;2022-12-07T15:34:03;1.70;99.90
21805;DHT22;11064;47.102;15.452;2022-12-07T15:36:31;1.70;99.90
21805;DHT22;11064;47.102;15.452;2022-12-07T15:38:58;1.70;99.90
21805;DHT22;11064;47.102;15.452;2022-12-07T15:41:24;1.70;99.90
21805;DHT22;11064;47.102;15.452;2022-12-07T15:43:50;1.70;99.90
21805;DHT22;11064;47.102;15.452;2022-12-07T15:46:37;1.70;99.90
21805;DHT22;11064;47.102;15.452;2022-12-07T15:49:16;1.60;99.90
21805;DHT22;11064;47.102;15.452;2022-12-07T15:51:44;1.60;99.90
21805;DHT22;11064;47.102;15.452;2022-12-07T15:54:20;1.50;99.90
21805;DHT22;11064;47.102;15.452;2022-12-07T15:56:46;1.60;99.90
21805;DHT22;11064;47.102;15.452;2022-12-07T15:59:12;1.60;99.90
21805;DHT22;11064;47.102;15.452;2022-12-07T16:01:38;1.50;99.90
21805;DHT22;11064;47.102;15.452;2022-12-07T16:04:04;1.60;99.90
21805;DHT22;11064;47.102;15.452;2022-12-07T16:06:30;1.70;99.90
21805;DHT22;11064;47.102;15.452;2022-12-07T16:08:55;1.70;99.90
21805;DHT22;11064;47.102;15.452;2022-12-07T16:11:21;1.80;99.90
21805;DHT22;11064;47.102;15.452;2022-12-07T16:13:47;1.90;99.90
21805;DHT22;11064;47.102;15.452;2022-12-07T16:16:16;2.00;99.90
21805;DHT22;11064;47.102;15.452;2022-12-07T16:18:44;2.00;99.90
21805;DHT22;11064;47.102;15.452;2022-12-07T16:21:10;2.10;99.90
21805;DHT22;11064;47.102;15.452;2022-12-07T16:23:37;2.20;99.90
21805;DHT22;11064;47.102;15.452;2022-12-07T16:26:08;2.30;99.90
21805;DHT22;11064;47.102;15.452;2022-12-07T16:28:34;2.40;99.90
21805;DHT22;11064;47.102;15.452;2022-12-07T16:31:02;2.40;99.90
21805;DHT22;11064;47.102;15.452;2022-12-07T16:33:28;2.40;99.90
21805;DHT22;11064;47.102;15.452;2022-12-07T16:35:54;2.40;99.90
21805;DHT22;11064;47.102;15.452;2022-12-07T16:38:20;2.40;99.90
21805;DHT22;11064;47.102;15.452;2022-12-07T16:40:47;2.40;99.90
21805;DHT22;11064;47.102;15.452;2022-12-07T16:43:13;2.50;99.90
21805;DHT22;11064;47.102;15.452;2022-12-07T16:45:39;2.50;99.90
21805;DHT22;11064;47.102;15.452;2022-12-07T16:48:05;2.60;99.90
21805;DHT22;11064;47.102;15.452;2022-12-07T16:50:31;2.60;99.90
21805;DHT22;11064;47.102;15.452;2022-12-07T16:52:57;2.60;99.90
21805;DHT22;11064;47.102;15.452;2022-12-07T16:55:23;2.60;99.90
21805;DHT22;11064;47.102;15.452;2022-12-07T16:57:48;2.60;99.90
21805;DHT22;11064;47.102;15.452;2022-12-07T17:00:14;2.60;99.90
21805;DHT22;11064;47.102;15.452;2022-12-07T17:02:40;2.50;99.90
21805;DHT22;11064;47.102;15.452;2022-12-07T17:05:06;2.60;99.90
21805;DHT22;11064;47.102;15.452;2022-12-07T17:07:33;2.60;99.90
21805;DHT22;11064;47.102;15.452;2022-12-07T17:09:59;2.60;99.90
21805;DHT22;11064;47.102;15.452;2022-12-07T17:12:25;2.60;99.90
21805;DHT22;11064;47.102;15.452;2022-12-07T17:14:51;2.70;99.90
21805;DHT22;11064;47.102;15.452;2022-12-07T17:17:35;2.80;99.90
21805;DHT22;11064;47.102;15.452;2022-12-07T17:20:01;2.90;99.90
21805;DHT22;11064;47.102;15.452;2022-12-07T17:22:27;2.90;99.90
21805;DHT22;11064;47.102;15.452;2022-12-07T17:24:53;2.90;99.90
21805;DHT22;11064;47.102;15.452;2022-12-07T17:27:19;2.90;99.90
21805;DHT22;11064;47.102;15.452;2022-12-07T17:29:46;2.90;99.90
21805;DHT22;11064;47.102;15.452;2022-12-07T17:32:11;3.00;99.90
21805;DHT22;11064;47.102;15.452;2022-12-07T17:34:37;2.90;99.90
21805;DHT22;11064;47.102;15.452;2022-12-07T17:37:03;2.90;99.90
21805;DHT22;11064;47.102;15.452;2022-12-07T17:39:29;2.90;99.90
21805;DHT22;11064;47.102;15.452;2022-12-07T17:41:55;3.00;99.90
21805;DHT22;11064;47.102;15.452;2022-12-07T17:44:39;3.00;99.90
21805;DHT22;11064;47.102;15.452;2022-12-07T17:47:05;2.90;99.90
21805;DHT22;11064;47.102;15.452;2022-12-07T17:49:32;2.90;99.90
21805;DHT22;11064;47.102;15.452;2022-12-07T17:52:00;3.00;99.90
21805;DHT22;11064;47.102;15.452;2022-12-07T17:54:45;3.00;99.90
21805;DHT22;11064;47.102;15.452;2022-12-07T17:57:10;2.90;99.90
21805;DHT22;11064;47.102;15.452;2022-12-07T17:59:37;3.00;99.90
21805;DHT22;11064;47.102;15.452;2022-12-07T18:02:03;3.00;99.90
21805;DHT22;11064;47.102;15.452;2022-12-07T18:04:29;3.00;99.90
21805;DHT22;11064;47.102;15.452;2022-12-07T18:06:55;3.00;99.90
21805;DHT22;11064;47.102;15.452;2022-12-07T18:09:21;3.00;99.90
21805;DHT22;11064;47.102;15.452;2022-12-07T18:11:48;3.10;99.90
21805;DHT22;11064;47.102;15.452;2022-12-07T18:14:14;3.00;99.90
21805;DHT22;11064;47.102;15.452;2022-12-07T18:16:43;2.90;99.90
21805;DHT22;11064;47.102;15.452;2022-12-07T18:19:10;2.90;99.90
21805;DHT22;11064;47.102;15.452;2022-12-07T18:21:38;2.90;99.90
21805;DHT22;11064;47.102;15.452;2022-12-07T18:24:04;2.90;99.90
21805;DHT22;11064;47.102;15.452;2022-12-07T18:26:32;2.80;99.90
21805;DHT22;11064;47.102;15.452;2022-12-07T18:29:00;2.70;99.90
21805;DHT22;11064;47.102;15.452;2022-12-07T18:31:27;2.60;99.90
21805;DHT22;11064;47.102;15.452;2022-12-07T18:33:54;2.60;99.90
21805;DHT22;11064;47.102;15.452;2022-12-07T18:36:23;2.60;99.90
21805;DHT22;11064;47.102;15.452;2022-12-07T18:38:50;2.70;99.90
21805;DHT22;11064;47.102;15.452;2022-12-07T18:41:17;2.70;99.90
21805;DHT22;11064;47.102;15.452;2022-12-07T18:43:43;2.70;99.90
21805;DHT22;11064;47.102;15.452;2022-12-07T18:46:15;2.60;99.90
21805;DHT22;11064;47.102;15.452;2022-12-07T18:48:42;2.70;99.90
21805;DHT22;11064;47.102;15.452;2022-12-07T18:51:10;2.60;99.90
21805;DHT22;11064;47.102;15.452;2022-12-07T18:53:37;2.60;99.90
21805;DHT22;11064;47.102;15.452;2022-12-07T18:56:18;2.50;99.90
21805;DHT22;11064;47.102;15.452;2022-12-07T18:58:49;2.50;99.90
21805;DHT22;11064;47.102;15.452;2022-12-07T19:01:34;2.50;99.90
21805;DHT22;11064;47.102;15.452;2022-12-07T19:04:02;2.50;99.90
21805;DHT22;11064;47.102;15.452;2022-12-07T19:06:28;2.50;99.90
21805;DHT22;11064;47.102;15.452;2022-12-07T19:08:55;2.40;99.90
21805;DHT22;11064;47.102;15.452;2022-12-07T19:11:23;2.50;99.90
21805;DHT22;11064;47.102;15.452;2022-12-07T19:14:08;2.60;99.90
21805;DHT22;11064;47.102;15.452;2022-12-07T19:16:34;2.70;99.90
21805;DHT22;11064;47.102;15.452;2022-12-07T19:19:00;2.70;99.90
21805;DHT22;11064;47.102;15.452;2022-12-07T19:21:27;2.70;99.90
21805;DHT22;11064;47.102;15.452;2022-12-07T19:23:53;2.70;99.90
21805;DHT22;11064;47.102;15.452;2022-12-07T19:26:20;2.80;99.90
21805;DHT22;11064;47.102;15.452;2022-12-07T19:28:48;2.80;99.90
21805;DHT22;11064;47.102;15.452;2022-12-07T19:31:14;2.80;99.90
21805;DHT22;11064;47.102;15.452;2022-12-07T19:33:40;2.70;99.90
21805;DHT22;11064;47.102;15.452;2022-12-07T19:36:06;2.80;99.90
21805;DHT22;11064;47.102;15.452;2022-12-07T19:38:34;2.70;99.90
21805;DHT22;11064;47.102;15.452;2022-12-07T19:41:07;2.80;99.90
21805;DHT22;11064;47.102;15.452;2022-12-07T19:43:54;2.70;99.90
21805;DHT22;11064;47.102;15.452;2022-12-07T19:46:20;2.80;99.90
21805;DHT22;11064;47.102;15.452;2022-12-07T19:48:47;2.90;99.90
21805;DHT22;11064;47.102;15.452;2022-12-07T19:51:13;2.80;99.90
21805;DHT22;11064;47.102;15.452;2022-12-07T19:53:39;2.80;99.90
21805;DHT22;11064;47.102;15.452;2022-12-07T19:56:05;2.80;99.90
21805;DHT22;11064;47.102;15.452;2022-12-07T19:58:32;2.80;99.90
21805;DHT22;11064;47.102;15.452;2022-12-07T20:01:05;2.80;99.90
21805;DHT22;11064;47.102;15.452;2022-12-07T20:03:31;2.70;99.90
21805;DHT22;11064;47.102;15.452;2022-12-07T20:05:59;2.80;99.90
21805;DHT22;11064;47.102;15.452;2022-12-07T20:08:25;2.90;99.90
21805;DHT22;11064;47.102;15.452;2022-12-07T20:10:52;2.90;99.90
21805;DHT22;11064;47.102;15.452;2022-12-07T20:13:19;2.90;99.90
21805;DHT22;11064;47.102;15.452;2022-12-07T20:15:57;3.00;99.90
21805;DHT22;11064;47.102;15.452;2022-12-07T20:18:24;3.00;99.90
21805;DHT22;11064;47.102;15.452;2022-12-07T20:20:57;3.00;99.90
21805;DHT22;11064;47.102;15.452;2022-12-07T20:23:26;3.00;99.90
21805;DHT22;11064;47.102;15.452;2022-12-07T20:25:53;3.00;99.90
21805;DHT22;11064;47.102;15.452;2022-12-07T20:28:20;3.00;99.90
21805;DHT22;11064;47.102;15.452;2022-12-07T20:30:48;3.00;99.90
21805;DHT22;11064;47.102;15.452;2022-12-07T20:33:14;3.10;99.90
21805;DHT22;11064;47.102;15.452;2022-12-07T20:35:40;3.10;99.90
21805;DHT22;11064;47.102;15.452;2022-12-07T20:38:08;3.10;99.90
21805;DHT22;11064;47.102;15.452;2022-12-07T20:40:37;3.10;99.90
21805;DHT22;11064;47.102;15.452;2022-12-07T20:43:03;3.20;99.90
21805;DHT22;11064;47.102;15.452;2022-12-07T20:45:30;3.10;99.90
21805;DHT22;11064;47.102;15.452;2022-12-07T20:47:56;2.90;99.90
21805;DHT22;11064;47.102;15.452;2022-12-07T20:50:22;2.80;99.90
21805;DHT22;11064;47.102;15.452;2022-12-07T20:52:49;2.80;99.90
21805;DHT22;11064;47.102;15.452;2022-12-07T20:55:15;2.80;99.90
21805;DHT22;11064;47.102;15.452;2022-12-07T20:57:40;2.80;99.90
21805;DHT22;11064;47.102;15.452;2022-12-07T21:00:07;2.80;99.90
21805;DHT22;11064;47.102;15.452;2022-12-07T21:02:34;2.90;99.90
21805;DHT22;11064;47.102;15.452;2022-12-07T21:05:00;2.90;99.90
21805;DHT22;11064;47.102;15.452;2022-12-07T21:07:26;2.80;99.90
21805;DHT22;11064;47.102;15.452;2022-12-07T21:09:52;2.80;99.90
21805;DHT22;11064;47.102;15.452;2022-12-07T21:12:18;2.70;99.90
21805;DHT22;11064;47.102;15.452;2022-12-07T21:14:44;2.60;99.90
21805;DHT22;11064;47.102;15.452;2022-12-07T21:17:11;2.60;99.90
21805;DHT22;11064;47.102;15.452;2022-12-07T21:19:37;2.60;99.90
21805;DHT22;11064;47.102;15.452;2022-12-07T21:22:03;2.60;99.90
21805;DHT22;11064;47.102;15.452;2022-12-07T21:24:29;2.60;99.90
21805;DHT22;11064;47.102;15.452;2022-12-07T21:26:55;2.70;99.90
21805;DHT22;11064;47.102;15.452;2022-12-07T21:29:21;2.70;99.90
21805;DHT22;11064;47.102;15.452;2022-12-07T21:31:47;2.80;99.90
21805;DHT22;11064;47.102;15.452;2022-12-07T21:34:13;2.80;99.90
21805;DHT22;11064;47.102;15.452;2022-12-07T21:36:39;2.70;99.90
21805;DHT22;11064;47.102;15.452;2022-12-07T21:39:05;2.70;99.90
21805;DHT22;11064;47.102;15.452;2022-12-07T21:41:33;2.70;99.90
21805;DHT22;11064;47.102;15.452;2022-12-07T21:44:01;2.80;99.90
21805;DHT22;11064;47.102;15.452;2022-12-07T21:46:28;2.80;99.90
21805;DHT22;11064;47.102;15.452;2022-12-07T21:48:56;2.80;99.90
21805;DHT22;11064;47.102;15.452;2022-12-07T21:51:26;2.80;99.90
21805;DHT22;11064;47.102;15.452;2022-12-07T21:53:55;2.60;99.90
21805;DHT22;11064;47.102;15.452;2022-12-07T21:56:26;2.60;99.90
21805;DHT22;11064;47.102;15.452;2022-12-07T21:58:54;2.60;99.90
21805;DHT22;11064;47.102;15.452;2022-12-07T22:01:23;2.70;99.90
21805;DHT22;11064;47.102;15.452;2022-12-07T22:03:50;2.80;99.90
21805;DHT22;11064;47.102;15.452;2022-12-07T22:06:19;2.70;99.90
21805;DHT22;11064;47.102;15.452;2022-12-07T22:08:45;2.80;99.90
21805;DHT22;11064;47.102;15.452;2022-12-07T22:11:11;2.60;99.90
21805;DHT22;11064;47.102;15.452;2022-12-07T22:13:38;2.60;99.90
21805;DHT22;11064;47.102;15.452;2022-12-07T22:16:23;2.60;99.90
21805;DHT22;11064;47.102;15.452;2022-12-07T22:18:49;2.70;99.90
21805;DHT22;11064;47.102;15.452;2022-12-07T22:21:15;2.70;99.90
21805;DHT22;11064;47.102;15.452;2022-12-07T22:23:41;2.60;99.90
21805;DHT22;11064;47.102;15.452;2022-12-07T22:26:09;2.60;99.90
21805;DHT22;11064;47.102;15.452;2022-12-07T22:28:39;2.70;99.90